UAL21 KLAX-LIRF
Flight info
| Callsign | UAL21 |
|---|---|
| Flight time | N/A |
| Altitude | 35000 |
| Route | ORCKA5 LAS Q70 BLIPP Q842 WINEN DCT MLF J107 OCS DCT CZI DCT DIK DCT KOBID DCT 56N090W/N0486F370 61N080W 6330N07000W DCT KAGLY/M083F370 DCT EMBOK DCT 63N050W/M084F390 6230N04000W 61N030W 5830N02000W DCT SUNOT/N0480F390 DCT KESIX DCT LUTOV DCT NIPIT DCT LIPGO/N0480F410 DCT NUCHU DCT BOGNA UL612 OGULO DCT OKASI DCT OKEKO DCT MOU DCT MADIV DCT MOKIP DCT TUFTA DCT KOGAS DCT MEDAM DCT NITAM DCT MOGBO DCT ELB/N0481F400 DCT ELKAP |
| Aircraft | B772/H-SDE2E3FGHIJ5LORVWXY/LB1D1 |
Departure
| Time | N/A |
|---|---|
| Airport | Los Angeles International Airport (KLAX) |
Arrival
| Time | 2026-05-01 11:30 |
|---|---|
| Airport | Rome–Fiumicino Leonardo da Vinci International Airport (LIRF) |
| Time | Latitude | Longitude | Altitude | Speed | Heading |
|---|---|---|---|---|---|
| 2026-05-01 08:51 | 54.42640 | -8.34563 | 41068 ft | 481 kts | 130° |
| 2026-05-01 08:51 | 54.40592 | -8.30032 | 41072 ft | 481 kts | 129° |
| 2026-05-01 08:52 | 54.37187 | -8.22464 | 41085 ft | 481 kts | 129° |
| 2026-05-01 08:52 | 54.33079 | -8.13383 | 41076 ft | 481 kts | 130° |
| 2026-05-01 08:53 | 54.28953 | -8.04337 | 41079 ft | 481 kts | 130° |
| 2026-05-01 08:53 | 54.24853 | -7.95394 | 41080 ft | 481 kts | 130° |
| 2026-05-01 08:54 | 54.20707 | -7.86388 | 41093 ft | 481 kts | 130° |
| 2026-05-01 08:54 | 54.16562 | -7.77413 | 41094 ft | 481 kts | 130° |
| 2026-05-01 08:55 | 54.12398 | -7.68430 | 41093 ft | 481 kts | 130° |
| 2026-05-01 08:55 | 54.08243 | -7.59498 | 41093 ft | 481 kts | 130° |
| 2026-05-01 08:56 | 54.04096 | -7.50613 | 41097 ft | 481 kts | 130° |
| 2026-05-01 08:56 | 53.99926 | -7.41713 | 41094 ft | 481 kts | 130° |
| 2026-05-01 08:57 | 53.95745 | -7.32822 | 41087 ft | 481 kts | 131° |
| 2026-05-01 08:57 | 53.91562 | -7.23957 | 41104 ft | 481 kts | 131° |
| 2026-05-01 08:58 | 53.87372 | -7.15108 | 41101 ft | 481 kts | 131° |
| 2026-05-01 08:58 | 53.83175 | -7.06277 | 41104 ft | 481 kts | 131° |
| 2026-05-01 08:59 | 53.78964 | -6.97446 | 41095 ft | 482 kts | 131° |
| 2026-05-01 08:59 | 53.74750 | -6.88642 | 41105 ft | 481 kts | 131° |
| 2026-05-01 09:00 | 53.70525 | -6.79846 | 41106 ft | 481 kts | 131° |
| 2026-05-01 09:00 | 53.66294 | -6.71069 | 41100 ft | 481 kts | 131° |
| 2026-05-01 09:01 | 53.62067 | -6.62328 | 41107 ft | 481 kts | 131° |
| 2026-05-01 09:01 | 53.57863 | -6.53668 | 41106 ft | 481 kts | 131° |
| 2026-05-01 09:02 | 53.53621 | -6.44958 | 41101 ft | 481 kts | 131° |
| 2026-05-01 09:02 | 53.49383 | -6.36289 | 41105 ft | 480 kts | 131° |
| 2026-05-01 09:03 | 53.45130 | -6.27617 | 41108 ft | 480 kts | 131° |
| 2026-05-01 09:03 | 53.40869 | -6.18962 | 41104 ft | 480 kts | 132° |
| 2026-05-01 09:04 | 53.36605 | -6.10328 | 41100 ft | 480 kts | 132° |
| 2026-05-01 09:04 | 53.32373 | -6.01788 | 41107 ft | 480 kts | 132° |
| 2026-05-01 09:05 | 53.28099 | -5.93193 | 41115 ft | 480 kts | 132° |
| 2026-05-01 09:05 | 53.23835 | -5.84648 | 41124 ft | 480 kts | 132° |
| 2026-05-01 09:06 | 53.19559 | -5.76109 | 41128 ft | 480 kts | 132° |
| 2026-05-01 09:06 | 53.15269 | -5.67568 | 41138 ft | 480 kts | 132° |
| 2026-05-01 09:07 | 53.10974 | -5.59044 | 41134 ft | 480 kts | 132° |
| 2026-05-01 09:07 | 53.06722 | -5.50578 | 41140 ft | 480 kts | 130° |
| 2026-05-01 09:08 | 53.02963 | -5.41370 | 41148 ft | 482 kts | 125° |
| 2026-05-01 09:08 | 52.99361 | -5.31978 | 41146 ft | 482 kts | 125° |
| 2026-05-01 09:09 | 52.95740 | -5.22617 | 41147 ft | 482 kts | 125° |
| 2026-05-01 09:09 | 52.92113 | -5.13335 | 41151 ft | 482 kts | 126° |
| 2026-05-01 09:10 | 52.88454 | -5.04031 | 41138 ft | 482 kts | 126° |
| 2026-05-01 09:10 | 52.84785 | -4.94734 | 41149 ft | 482 kts | 126° |
| 2026-05-01 09:11 | 52.81113 | -4.85462 | 41164 ft | 482 kts | 126° |
| 2026-05-01 09:11 | 52.77433 | -4.76202 | 41162 ft | 482 kts | 126° |
| 2026-05-01 09:12 | 52.73766 | -4.67008 | 41157 ft | 482 kts | 126° |
| 2026-05-01 09:12 | 52.70073 | -4.57782 | 41160 ft | 482 kts | 126° |
| 2026-05-01 09:13 | 52.66367 | -4.48558 | 41146 ft | 482 kts | 126° |
| 2026-05-01 09:13 | 52.62655 | -4.39352 | 41152 ft | 482 kts | 126° |
| 2026-05-01 09:14 | 52.58953 | -4.30203 | 41158 ft | 482 kts | 126° |
| 2026-05-01 09:14 | 52.55224 | -4.21022 | 41161 ft | 482 kts | 126° |
| 2026-05-01 09:15 | 52.51491 | -4.11864 | 41156 ft | 483 kts | 126° |
| 2026-05-01 09:15 | 52.47742 | -4.02696 | 41161 ft | 483 kts | 126° |
| 2026-05-01 09:16 | 52.43987 | -3.93552 | 41141 ft | 483 kts | 126° |
| 2026-05-01 09:17 | 52.38357 | -3.79899 | 41159 ft | 484 kts | 126° |
| 2026-05-01 09:17 | 52.32686 | -3.66219 | 41157 ft | 484 kts | 126° |
| 2026-05-01 09:18 | 52.26980 | -3.52529 | 41156 ft | 486 kts | 126° |
| 2026-05-01 09:19 | 52.21251 | -3.38859 | 41157 ft | 486 kts | 126° |
| 2026-05-01 09:20 | 52.15529 | -3.25275 | 41160 ft | 487 kts | 126° |
| 2026-05-01 09:21 | 52.07819 | -3.07084 | 41159 ft | 487 kts | 126° |
| 2026-05-01 09:21 | 52.02030 | -2.93511 | 41159 ft | 487 kts | 126° |
| 2026-05-01 09:22 | 51.94313 | -2.75529 | 41164 ft | 487 kts | 126° |
| 2026-05-01 09:23 | 51.88476 | -2.62011 | 41161 ft | 488 kts | 127° |
| 2026-05-01 09:24 | 51.82632 | -2.48545 | 41166 ft | 488 kts | 127° |
| 2026-05-01 09:25 | 51.74801 | -2.30614 | 41162 ft | 488 kts | 127° |
| 2026-05-01 09:26 | 51.68931 | -2.17251 | 41166 ft | 488 kts | 127° |
| 2026-05-01 09:26 | 51.63023 | -2.03873 | 41168 ft | 489 kts | 127° |
| 2026-05-01 09:27 | 51.57085 | -1.90495 | 41159 ft | 489 kts | 127° |
| 2026-05-01 09:28 | 51.55110 | -1.86059 | 41159 ft | 489 kts | 127° |
| 2026-05-01 09:28 | 51.53181 | -1.81736 | 41167 ft | 488 kts | 127° |
| 2026-05-01 09:29 | 51.47938 | -1.70016 | 41169 ft | 488 kts | 127° |
| 2026-05-01 09:30 | 51.44691 | -1.63321 | 41171 ft | 487 kts | 131° |
| 2026-05-01 09:30 | 51.39558 | -1.53621 | 41164 ft | 487 kts | 132° |
| 2026-05-01 09:31 | 51.35148 | -1.45348 | 41167 ft | 487 kts | 131° |
| 2026-05-01 09:32 | 51.28594 | -1.32988 | 41178 ft | 487 kts | 131° |
| 2026-05-01 09:32 | 51.22027 | -1.20633 | 41181 ft | 487 kts | 131° |
| 2026-05-01 09:33 | 51.17650 | -1.12433 | 41188 ft | 487 kts | 131° |
| 2026-05-01 09:34 | 51.11055 | -1.00131 | 41180 ft | 487 kts | 132° |
| 2026-05-01 09:34 | 51.04449 | -0.87867 | 41181 ft | 486 kts | 132° |
| 2026-05-01 09:35 | 50.97832 | -0.75642 | 41189 ft | 486 kts | 132° |
| 2026-05-01 09:36 | 50.93407 | -0.67497 | 41203 ft | 486 kts | 132° |
| 2026-05-01 09:36 | 50.88993 | -0.59401 | 41209 ft | 486 kts | 132° |
| 2026-05-01 09:37 | 50.84591 | -0.51350 | 41205 ft | 487 kts | 132° |
| 2026-05-01 09:37 | 50.80907 | -0.44632 | 41211 ft | 487 kts | 132° |
| 2026-05-01 09:38 | 50.74232 | -0.32499 | 41211 ft | 487 kts | 132° |
| 2026-05-01 09:39 | 50.66874 | -0.21556 | 41206 ft | 484 kts | 147° |
| 2026-05-01 09:39 | 50.61237 | -0.15737 | 41212 ft | 484 kts | 148° |
| 2026-05-01 09:40 | 50.52820 | -0.07041 | 41211 ft | 485 kts | 147° |
| 2026-05-01 09:41 | 50.47193 | -0.01175 | 41210 ft | 485 kts | 147° |
| 2026-05-01 09:41 | 50.38761 | 0.07585 | 41207 ft | 485 kts | 147° |
| 2026-05-01 09:42 | 50.33124 | 0.13433 | 41228 ft | 485 kts | 147° |
| 2026-05-01 09:43 | 50.21896 | 0.25059 | 41212 ft | 485 kts | 147° |
| 2026-05-01 09:43 | 50.16247 | 0.30871 | 41209 ft | 485 kts | 147° |
| 2026-05-01 09:44 | 50.07781 | 0.39539 | 41231 ft | 486 kts | 147° |
| 2026-05-01 09:45 | 50.02118 | 0.45321 | 41216 ft | 486 kts | 147° |
| 2026-05-01 09:45 | 49.93627 | 0.53963 | 41225 ft | 486 kts | 147° |
| 2026-05-01 09:46 | 49.87962 | 0.59709 | 41223 ft | 486 kts | 147° |
| 2026-05-01 09:46 | 49.82562 | 0.65809 | 41221 ft | 487 kts | 141° |
| 2026-05-01 09:47 | 49.78485 | 0.70994 | 41226 ft | 487 kts | 141° |
| 2026-05-01 09:47 | 49.73247 | 0.77644 | 41224 ft | 487 kts | 141° |
| 2026-05-01 09:48 | 49.67983 | 0.84256 | 41224 ft | 487 kts | 141° |
| 2026-05-01 09:48 | 49.62717 | 0.90829 | 41223 ft | 487 kts | 142° |
| 2026-05-01 09:49 | 49.57438 | 0.97399 | 41234 ft | 487 kts | 142° |
| 2026-05-01 09:49 | 49.52190 | 1.03915 | 41234 ft | 487 kts | 142° |
| 2026-05-01 09:50 | 49.46906 | 1.10459 | 41239 ft | 488 kts | 142° |
| 2026-05-01 09:50 | 49.41609 | 1.17000 | 41239 ft | 488 kts | 142° |
| 2026-05-01 09:51 | 49.36316 | 1.23515 | 41241 ft | 488 kts | 142° |
| 2026-05-01 09:51 | 49.31009 | 1.30030 | 41238 ft | 488 kts | 142° |
| 2026-05-01 09:52 | 49.25692 | 1.36543 | 41237 ft | 488 kts | 142° |
| 2026-05-01 09:52 | 49.20422 | 1.42982 | 41227 ft | 487 kts | 142° |
| 2026-05-01 09:53 | 49.15123 | 1.49438 | 41228 ft | 487 kts | 142° |
| 2026-05-01 09:53 | 49.09807 | 1.55895 | 41229 ft | 486 kts | 142° |
| 2026-05-01 09:54 | 49.04506 | 1.62316 | 41235 ft | 486 kts | 142° |
| 2026-05-01 09:54 | 48.99207 | 1.68717 | 41232 ft | 486 kts | 142° |
| 2026-05-01 09:55 | 48.93902 | 1.75108 | 41228 ft | 486 kts | 142° |
| 2026-05-01 09:55 | 48.88631 | 1.81439 | 41233 ft | 486 kts | 142° |
| 2026-05-01 09:56 | 48.83328 | 1.87792 | 41236 ft | 486 kts | 142° |
| 2026-05-01 09:56 | 48.78013 | 1.94142 | 41241 ft | 486 kts | 142° |
| 2026-05-01 09:57 | 48.72699 | 2.00474 | 41242 ft | 486 kts | 142° |
| 2026-05-01 09:57 | 48.67380 | 2.06794 | 41238 ft | 486 kts | 142° |
| 2026-05-01 09:58 | 48.62057 | 2.13104 | 41243 ft | 486 kts | 142° |
| 2026-05-01 09:58 | 48.56789 | 2.19413 | 41236 ft | 486 kts | 139° |
| 2026-05-01 09:59 | 48.51958 | 2.26553 | 41245 ft | 486 kts | 135° |
| 2026-05-01 09:59 | 48.47220 | 2.33833 | 41230 ft | 486 kts | 135° |
| 2026-05-01 10:00 | 48.42454 | 2.41060 | 41235 ft | 486 kts | 135° |
| 2026-05-01 10:00 | 48.37674 | 2.48251 | 41228 ft | 486 kts | 135° |
| 2026-05-01 10:01 | 48.32890 | 2.55429 | 41231 ft | 486 kts | 135° |
| 2026-05-01 10:01 | 48.27751 | 2.61986 | 41235 ft | 485 kts | 146° |
| 2026-05-01 10:02 | 48.21900 | 2.66978 | 41231 ft | 484 kts | 155° |
| 2026-05-01 10:02 | 48.16161 | 2.71356 | 41228 ft | 485 kts | 152° |
| 2026-05-01 10:03 | 48.10245 | 2.76237 | 41232 ft | 485 kts | 152° |
| 2026-05-01 10:03 | 48.06902 | 2.78783 | 41228 ft | 485 kts | 156° |
| 2026-05-01 10:04 | 48.02635 | 2.81497 | 41232 ft | 485 kts | 158° |
| 2026-05-01 10:04 | 47.96403 | 2.85394 | 41231 ft | 485 kts | 158° |
| 2026-05-01 10:05 | 47.90208 | 2.89302 | 41231 ft | 486 kts | 158° |
| 2026-05-01 10:05 | 47.83968 | 2.93255 | 41231 ft | 487 kts | 157° |
| 2026-05-01 10:06 | 47.77724 | 2.97203 | 41239 ft | 487 kts | 158° |
| 2026-05-01 10:06 | 47.71474 | 3.01142 | 41230 ft | 488 kts | 158° |
| 2026-05-01 10:07 | 47.65208 | 3.05079 | 41240 ft | 488 kts | 158° |
| 2026-05-01 10:07 | 47.58987 | 3.08980 | 41232 ft | 488 kts | 158° |
| 2026-05-01 10:08 | 47.49580 | 3.14854 | 41236 ft | 489 kts | 158° |
| 2026-05-01 10:09 | 47.43305 | 3.18753 | 41238 ft | 490 kts | 158° |
| 2026-05-01 10:09 | 47.37024 | 3.22649 | 41242 ft | 490 kts | 158° |
| 2026-05-01 10:10 | 47.30723 | 3.26548 | 41237 ft | 490 kts | 158° |
| 2026-05-01 10:10 | 47.21327 | 3.32344 | 41241 ft | 490 kts | 158° |
| 2026-05-01 10:11 | 47.15012 | 3.36228 | 41250 ft | 491 kts | 158° |
| 2026-05-01 10:11 | 47.08703 | 3.40097 | 41255 ft | 491 kts | 158° |
| 2026-05-01 10:12 | 47.03452 | 3.43310 | 41257 ft | 491 kts | 158° |
| 2026-05-01 10:13 | 46.92948 | 3.49717 | 41259 ft | 492 kts | 158° |
| 2026-05-01 10:13 | 46.87702 | 3.52907 | 41245 ft | 492 kts | 158° |
| 2026-05-01 10:14 | 46.78197 | 3.58670 | 41256 ft | 493 kts | 158° |
| 2026-05-01 10:14 | 46.72344 | 3.63669 | 41248 ft | 492 kts | 134° |
| 2026-05-01 10:15 | 46.70270 | 3.67641 | 41262 ft | 493 kts | 120° |
| 2026-05-01 10:15 | 46.68931 | 3.72229 | 41253 ft | 495 kts | 105° |
| 2026-05-01 10:15 | 46.67430 | 3.82012 | 41260 ft | 496 kts | 103° |
| 2026-05-01 10:16 | 46.65838 | 3.91718 | 41263 ft | 497 kts | 105° |
| 2026-05-01 10:17 | 46.63326 | 4.06122 | 41257 ft | 498 kts | 105° |
| 2026-05-01 10:17 | 46.60773 | 4.20783 | 41257 ft | 499 kts | 105° |
| 2026-05-01 10:18 | 46.58200 | 4.35453 | 41259 ft | 499 kts | 105° |
| 2026-05-01 10:19 | 46.56472 | 4.45228 | 41253 ft | 500 kts | 105° |
| 2026-05-01 10:19 | 46.54734 | 4.55013 | 41256 ft | 500 kts | 105° |
| 2026-05-01 10:20 | 46.52121 | 4.69617 | 41257 ft | 500 kts | 105° |
| 2026-05-01 10:20 | 46.50363 | 4.79380 | 41259 ft | 500 kts | 105° |
| 2026-05-01 10:21 | 46.47706 | 4.94038 | 41257 ft | 500 kts | 105° |
| 2026-05-01 10:22 | 46.45035 | 5.08666 | 41251 ft | 500 kts | 105° |
| 2026-05-01 10:23 | 46.42324 | 5.23277 | 41266 ft | 501 kts | 105° |
| 2026-05-01 10:23 | 46.39432 | 5.37840 | 41274 ft | 501 kts | 112° |
| 2026-05-01 10:24 | 46.36132 | 5.46631 | 41277 ft | 501 kts | 126° |
| 2026-05-01 10:24 | 46.31696 | 5.54395 | 41273 ft | 500 kts | 131° |
| 2026-05-01 10:25 | 46.22534 | 5.69607 | 41293 ft | 501 kts | 131° |
| 2026-05-01 10:26 | 46.18022 | 5.77196 | 41309 ft | 502 kts | 131° |
| 2026-05-01 10:27 | 46.08919 | 5.92475 | 41316 ft | 503 kts | 131° |
| 2026-05-01 10:28 | 46.02066 | 6.03907 | 41295 ft | 503 kts | 131° |
| 2026-05-01 10:28 | 45.95189 | 6.15335 | 41294 ft | 504 kts | 131° |
| 2026-05-01 10:29 | 45.88289 | 6.26757 | 41293 ft | 505 kts | 131° |
| 2026-05-01 10:30 | 45.78676 | 6.41365 | 41278 ft | 505 kts | 142° |
| 2026-05-01 10:31 | 45.67216 | 6.52943 | 41272 ft | 506 kts | 145° |
| 2026-05-01 10:32 | 45.58584 | 6.61656 | 41285 ft | 506 kts | 145° |
| 2026-05-01 10:33 | 45.47112 | 6.73243 | 41300 ft | 508 kts | 145° |
| 2026-05-01 10:34 | 45.38462 | 6.81934 | 41289 ft | 509 kts | 145° |
| 2026-05-01 10:34 | 45.32665 | 6.87741 | 41313 ft | 509 kts | 145° |
| 2026-05-01 10:35 | 45.24201 | 6.96834 | 41332 ft | 510 kts | 136° |
| 2026-05-01 10:35 | 45.19237 | 7.03831 | 41344 ft | 510 kts | 135° |
| 2026-05-01 10:36 | 45.11648 | 7.14440 | 41351 ft | 511 kts | 133° |
| 2026-05-01 10:37 | 45.07248 | 7.22311 | 41354 ft | 510 kts | 123° |
| 2026-05-01 10:37 | 45.01229 | 7.34738 | 41356 ft | 511 kts | 124° |
| 2026-05-01 10:38 | 44.96943 | 7.42687 | 41369 ft | 512 kts | 132° |
| 2026-05-01 10:38 | 44.91898 | 7.49790 | 41367 ft | 513 kts | 135° |
| 2026-05-01 10:39 | 44.86785 | 7.56804 | 41376 ft | 513 kts | 135° |
| 2026-05-01 10:39 | 44.81677 | 7.63862 | 41388 ft | 514 kts | 135° |
| 2026-05-01 10:40 | 44.76609 | 7.70900 | 41386 ft | 514 kts | 135° |
| 2026-05-01 10:40 | 44.71513 | 7.77972 | 41379 ft | 515 kts | 135° |
| 2026-05-01 10:41 | 44.66404 | 7.85039 | 41387 ft | 515 kts | 135° |
| 2026-05-01 10:42 | 44.58726 | 7.95620 | 41367 ft | 516 kts | 135° |
| 2026-05-01 10:42 | 44.53596 | 8.02666 | 41371 ft | 517 kts | 135° |
| 2026-05-01 10:43 | 44.48458 | 8.09704 | 41366 ft | 517 kts | 135° |
| 2026-05-01 10:43 | 44.43302 | 8.16748 | 41357 ft | 517 kts | 135° |
| 2026-05-01 10:44 | 44.38155 | 8.23763 | 41356 ft | 518 kts | 135° |
| 2026-05-01 10:44 | 44.32992 | 8.30780 | 41359 ft | 518 kts | 135° |
| 2026-05-01 10:45 | 44.27825 | 8.37786 | 41345 ft | 518 kts | 135° |
| 2026-05-01 10:45 | 44.26825 | 8.39139 | 41346 ft | 519 kts | 135° |
| 2026-05-01 10:46 | 44.24486 | 8.42301 | 41351 ft | 519 kts | 135° |
| 2026-05-01 10:46 | 44.21797 | 8.45930 | 41442 ft | 517 kts | 135° |
| 2026-05-01 10:47 | 44.18308 | 8.50636 | 41458 ft | 516 kts | 135° |
| 2026-05-01 10:48 | 44.13387 | 8.57260 | 41376 ft | 502 kts | 135° |
| 2026-05-01 10:48 | 44.08377 | 8.63988 | 41340 ft | 500 kts | 135° |
| 2026-05-01 10:49 | 44.03365 | 8.70701 | 41343 ft | 499 kts | 135° |
| 2026-05-01 10:49 | 43.98363 | 8.77385 | 41348 ft | 500 kts | 135° |
| 2026-05-01 10:50 | 43.93336 | 8.84084 | 41349 ft | 501 kts | 135° |
| 2026-05-01 10:50 | 43.88295 | 8.90785 | 41349 ft | 503 kts | 135° |
| 2026-05-01 10:51 | 43.83226 | 8.97508 | 41349 ft | 505 kts | 135° |
| 2026-05-01 10:51 | 43.78146 | 9.04227 | 41350 ft | 507 kts | 135° |
| 2026-05-01 10:52 | 43.73036 | 9.10971 | 41361 ft | 508 kts | 135° |
| 2026-05-01 10:52 | 43.67907 | 9.17722 | 41352 ft | 510 kts | 135° |
| 2026-05-01 10:53 | 43.62772 | 9.24464 | 41346 ft | 510 kts | 135° |
| 2026-05-01 10:53 | 43.58454 | 9.30120 | 41347 ft | 510 kts | 135° |
| 2026-05-01 10:54 | 43.53299 | 9.36858 | 41346 ft | 510 kts | 135° |
| 2026-05-01 10:54 | 43.48147 | 9.43576 | 41343 ft | 510 kts | 135° |
| 2026-05-01 10:55 | 43.42987 | 9.50287 | 41332 ft | 511 kts | 135° |
| 2026-05-01 10:55 | 43.37805 | 9.57009 | 41352 ft | 513 kts | 135° |
| 2026-05-01 10:56 | 43.32608 | 9.63736 | 41354 ft | 514 kts | 135° |
| 2026-05-01 10:56 | 43.27396 | 9.70465 | 41345 ft | 515 kts | 135° |
| 2026-05-01 10:57 | 43.22171 | 9.77193 | 41322 ft | 515 kts | 135° |
| 2026-05-01 10:57 | 43.16942 | 9.83911 | 41362 ft | 516 kts | 135° |
| 2026-05-01 10:58 | 43.11690 | 9.90641 | 41334 ft | 517 kts | 135° |
| 2026-05-01 10:58 | 43.06427 | 9.97369 | 41336 ft | 518 kts | 135° |
| 2026-05-01 10:59 | 43.01170 | 10.04074 | 41328 ft | 519 kts | 136° |
| 2026-05-01 10:59 | 42.95833 | 10.10863 | 41322 ft | 519 kts | 136° |
| 2026-05-01 11:00 | 42.90572 | 10.17538 | 41325 ft | 519 kts | 136° |
| 2026-05-01 11:00 | 42.85281 | 10.24240 | 41331 ft | 520 kts | 135° |
| 2026-05-01 11:01 | 42.79968 | 10.30949 | 41327 ft | 521 kts | 136° |
| 2026-05-01 11:01 | 42.75074 | 10.38112 | 41306 ft | 514 kts | 118° |
| 2026-05-01 11:01 | 42.73536 | 10.42460 | 41325 ft | 509 kts | 105° |
| 2026-05-01 11:02 | 42.72645 | 10.47083 | 41252 ft | 504 kts | 94° |
| 2026-05-01 11:02 | 42.72419 | 10.51913 | 40528 ft | 508 kts | 85° |
| 2026-05-01 11:02 | 42.72381 | 10.56670 | 39838 ft | 509 kts | 86° |
| 2026-05-01 11:02 | 42.72222 | 10.61472 | 39177 ft | 510 kts | 91° |
| 2026-05-01 11:03 | 42.71392 | 10.66213 | 38195 ft | 525 kts | 109° |
| 2026-05-01 11:03 | 42.69576 | 10.70532 | 37433 ft | 527 kts | 120° |
| 2026-05-01 11:03 | 42.67542 | 10.74676 | 36472 ft | 528 kts | 120° |
| 2026-05-01 11:03 | 42.65529 | 10.78857 | 35511 ft | 530 kts | 119° |
| 2026-05-01 11:04 | 42.63535 | 10.83093 | 34496 ft | 533 kts | 118° |
| 2026-05-01 11:04 | 42.61562 | 10.87351 | 33320 ft | 536 kts | 117° |
| 2026-05-01 11:04 | 42.59591 | 10.91638 | 32275 ft | 534 kts | 117° |
| 2026-05-01 11:04 | 42.57630 | 10.95911 | 31149 ft | 534 kts | 116° |
| 2026-05-01 11:05 | 42.55673 | 11.00161 | 30403 ft | 526 kts | 115° |
| 2026-05-01 11:05 | 42.53752 | 11.04319 | 29431 ft | 518 kts | 115° |
| 2026-05-01 11:05 | 42.51847 | 11.08441 | 28295 ft | 513 kts | 115° |
| 2026-05-01 11:05 | 42.49961 | 11.12518 | 27340 ft | 506 kts | 115° |
| 2026-05-01 11:06 | 42.48122 | 11.16483 | 26521 ft | 498 kts | 115° |
| 2026-05-01 11:06 | 42.46289 | 11.20428 | 25718 ft | 491 kts | 115° |
| 2026-05-01 11:06 | 42.44545 | 11.24343 | 24943 ft | 479 kts | 110° |
| 2026-05-01 11:07 | 42.43133 | 11.32587 | 23457 ft | 437 kts | 88° |
| 2026-05-01 11:07 | 42.42789 | 11.36672 | 22562 ft | 435 kts | 90° |
| 2026-05-01 11:07 | 42.42366 | 11.40699 | 21983 ft | 428 kts | 91° |
| 2026-05-01 11:07 | 42.41917 | 11.44595 | 21845 ft | 410 kts | 91° |
| 2026-05-01 11:08 | 42.41486 | 11.48316 | 21672 ft | 396 kts | 91° |
| 2026-05-01 11:08 | 42.41071 | 11.51938 | 21503 ft | 382 kts | 90° |
| 2026-05-01 11:08 | 42.39799 | 11.58606 | 21162 ft | 374 kts | 112° |
| 2026-05-01 11:09 | 42.38143 | 11.61345 | 20889 ft | 379 kts | 129° |
| 2026-05-01 11:09 | 42.36225 | 11.63756 | 20592 ft | 375 kts | 130° |
| 2026-05-01 11:09 | 42.34404 | 11.66220 | 20320 ft | 363 kts | 123° |
| 2026-05-01 11:10 | 42.31523 | 11.71597 | 19729 ft | 350 kts | 117° |
| 2026-05-01 11:10 | 42.30135 | 11.74291 | 19340 ft | 349 kts | 117° |
| 2026-05-01 11:10 | 42.28748 | 11.76974 | 18965 ft | 347 kts | 117° |
| 2026-05-01 11:10 | 42.27362 | 11.79643 | 18610 ft | 346 kts | 117° |
| 2026-05-01 11:11 | 42.25986 | 11.82285 | 18258 ft | 344 kts | 117° |
| 2026-05-01 11:11 | 42.24614 | 11.84913 | 17865 ft | 341 kts | 117° |
| 2026-05-01 11:11 | 42.23253 | 11.87514 | 17481 ft | 338 kts | 118° |
| 2026-05-01 11:11 | 42.21901 | 11.90095 | 17132 ft | 335 kts | 118° |
| 2026-05-01 11:12 | 42.20568 | 11.92639 | 16762 ft | 333 kts | 118° |
| 2026-05-01 11:12 | 42.19232 | 11.95185 | 16404 ft | 331 kts | 118° |
| 2026-05-01 11:12 | 42.17914 | 11.97694 | 16099 ft | 329 kts | 118° |
| 2026-05-01 11:12 | 42.16591 | 12.00212 | 15753 ft | 326 kts | 118° |
| 2026-05-01 11:13 | 42.15289 | 12.02689 | 15425 ft | 323 kts | 118° |
| 2026-05-01 11:13 | 42.14198 | 12.04764 | 15136 ft | 322 kts | 120° |
| 2026-05-01 11:13 | 42.13401 | 12.06276 | 14963 ft | 320 kts | 120° |
| 2026-05-01 11:13 | 42.12896 | 12.07234 | 14829 ft | 318 kts | 120° |
| 2026-05-01 11:14 | 42.11695 | 12.09512 | 14506 ft | 317 kts | 120° |
| 2026-05-01 11:14 | 42.10616 | 12.11557 | 14224 ft | 315 kts | 120° |
| 2026-05-01 11:14 | 42.09498 | 12.13676 | 13908 ft | 313 kts | 120° |
| 2026-05-01 11:14 | 42.08398 | 12.15758 | 13563 ft | 312 kts | 120° |
| 2026-05-01 11:15 | 42.07212 | 12.18000 | 13237 ft | 309 kts | 120° |
| 2026-05-01 11:15 | 42.05973 | 12.20343 | 12800 ft | 306 kts | 120° |
| 2026-05-01 11:15 | 42.05182 | 12.21837 | 12587 ft | 304 kts | 120° |
| 2026-05-01 11:15 | 42.04913 | 12.22346 | 12510 ft | 304 kts | 120° |
| 2026-05-01 11:16 | 42.03704 | 12.24629 | 12196 ft | 301 kts | 120° |
| 2026-05-01 11:16 | 42.02501 | 12.26901 | 11834 ft | 299 kts | 121° |
| 2026-05-01 11:16 | 42.01297 | 12.29169 | 11510 ft | 297 kts | 121° |
| 2026-05-01 11:16 | 42.00102 | 12.31421 | 11195 ft | 295 kts | 121° |
| 2026-05-01 11:17 | 41.98954 | 12.33461 | 10850 ft | 291 kts | 129° |
| 2026-05-01 11:17 | 41.97981 | 12.34511 | 10515 ft | 301 kts | 148° |
| 2026-05-01 11:17 | 41.96019 | 12.35455 | 10104 ft | 301 kts | 160° |
| 2026-05-01 11:18 | 41.94006 | 12.36252 | 9783 ft | 299 kts | 160° |
| 2026-05-01 11:18 | 41.92036 | 12.37061 | 9555 ft | 293 kts | 160° |
| 2026-05-01 11:18 | 41.90110 | 12.37858 | 9316 ft | 288 kts | 160° |
| 2026-05-01 11:18 | 41.88203 | 12.38648 | 9022 ft | 285 kts | 160° |
| 2026-05-01 11:19 | 41.86309 | 12.39436 | 8696 ft | 284 kts | 160° |
| 2026-05-01 11:19 | 41.84426 | 12.40220 | 8392 ft | 283 kts | 160° |
| 2026-05-01 11:19 | 41.82558 | 12.40998 | 8124 ft | 280 kts | 160° |
| 2026-05-01 11:19 | 41.80720 | 12.41763 | 7959 ft | 274 kts | 160° |
| 2026-05-01 11:20 | 41.78907 | 12.42518 | 7677 ft | 272 kts | 160° |
| 2026-05-01 11:20 | 41.77101 | 12.43271 | 7390 ft | 271 kts | 160° |
| 2026-05-01 11:20 | 41.75303 | 12.44021 | 7138 ft | 270 kts | 159° |
| 2026-05-01 11:20 | 41.73516 | 12.44763 | 6886 ft | 268 kts | 160° |
| 2026-05-01 11:21 | 41.71744 | 12.45502 | 6608 ft | 266 kts | 160° |
| 2026-05-01 11:21 | 41.69998 | 12.46229 | 6453 ft | 259 kts | 160° |
| 2026-05-01 11:21 | 41.68299 | 12.46934 | 6357 ft | 250 kts | 160° |
| 2026-05-01 11:21 | 41.66662 | 12.47612 | 6344 ft | 244 kts | 160° |
| 2026-05-01 11:22 | 41.65052 | 12.48278 | 6343 ft | 243 kts | 160° |
| 2026-05-01 11:22 | 41.63428 | 12.48911 | 6337 ft | 242 kts | 167° |
| 2026-05-01 11:22 | 41.61750 | 12.48790 | 6218 ft | 248 kts | 198° |
| 2026-05-01 11:22 | 41.60309 | 12.47544 | 5961 ft | 249 kts | 229° |
| 2026-05-01 11:23 | 41.59477 | 12.45553 | 5630 ft | 245 kts | 250° |
| 2026-05-01 11:23 | 41.58930 | 12.43403 | 5321 ft | 244 kts | 253° |
| 2026-05-01 11:23 | 41.58425 | 12.41255 | 5068 ft | 242 kts | 253° |
| 2026-05-01 11:23 | 41.57918 | 12.39106 | 4716 ft | 243 kts | 254° |
| 2026-05-01 11:24 | 41.57404 | 12.36948 | 4368 ft | 242 kts | 257° |
| 2026-05-01 11:24 | 41.57299 | 12.34771 | 3934 ft | 237 kts | 287° |
| 2026-05-01 11:24 | 41.59424 | 12.31934 | 3410 ft | 217 kts | 341° |
| 2026-05-01 11:25 | 41.60847 | 12.31261 | 3066 ft | 216 kts | 344° |
| 2026-05-01 11:25 | 41.63572 | 12.30117 | 2852 ft | 194 kts | 345° |
| 2026-05-01 11:25 | 41.64850 | 12.29590 | 2561 ft | 192 kts | 345° |
| 2026-05-01 11:26 | 41.66120 | 12.29065 | 2519 ft | 189 kts | 344° |
| 2026-05-01 11:26 | 41.68375 | 12.28125 | 2386 ft | 148 kts | 345° |
| 2026-05-01 11:26 | 41.69310 | 12.27736 | 2148 ft | 134 kts | 346° |
| 2026-05-01 11:27 | 41.70175 | 12.27377 | 1984 ft | 129 kts | 346° |
| 2026-05-01 11:27 | 41.71028 | 12.27023 | 1770 ft | 129 kts | 347° |
| 2026-05-01 11:27 | 41.71875 | 12.26672 | 1559 ft | 127 kts | 345° |
| 2026-05-01 11:27 | 41.72737 | 12.26312 | 1360 ft | 129 kts | 345° |
| 2026-05-01 11:28 | 41.73596 | 12.25955 | 1162 ft | 130 kts | 345° |
| 2026-05-01 11:28 | 41.74459 | 12.25595 | 923 ft | 129 kts | 346° |
| 2026-05-01 11:28 | 41.75290 | 12.25230 | 760 ft | 121 kts | 348° |
| 2026-05-01 11:29 | 41.76998 | 12.24541 | 395 ft | 136 kts | 347° |
| 2026-05-01 11:29 | 41.77858 | 12.24176 | 118 ft | 123 kts | 347° |
| 2026-05-01 11:29 | 41.79160 | 12.23642 | 21 ft | 96 kts | 342° |
| 2026-05-01 11:30 | 41.79610 | 12.23504 | 18 ft | 19 kts | 10° |
| 2026-05-01 11:30 | 41.79706 | 12.23532 | 19 ft | 0 kts | 13° |
| 2026-05-01 11:32 | 41.79736 | 12.23542 | 19 ft | 11 kts | 13° |
| 2026-05-01 11:32 | 41.79798 | 12.23599 | 19 ft | 11 kts | 61° |
| 2026-05-01 11:32 | 41.79824 | 12.23699 | 19 ft | 11 kts | 75° |
| 2026-05-01 11:33 | 41.79850 | 12.23800 | 19 ft | 11 kts | 69° |
| 2026-05-01 11:33 | 41.79878 | 12.23900 | 18 ft | 11 kts | 69° |
| 2026-05-01 11:33 | 41.79906 | 12.24000 | 20 ft | 11 kts | 70° |
| 2026-05-01 11:33 | 41.79920 | 12.24103 | 19 ft | 11 kts | 105° |
| 2026-05-01 11:34 | 41.79897 | 12.24204 | 21 ft | 11 kts | 106° |
| 2026-05-01 11:34 | 41.79852 | 12.24288 | 18 ft | 11 kts | 143° |
| 2026-05-01 11:34 | 41.79793 | 12.24352 | 18 ft | 11 kts | 149° |
| 2026-05-01 11:34 | 41.79723 | 12.24389 | 18 ft | 11 kts | 158° |
| 2026-05-01 11:35 | 41.79689 | 12.24388 | 18 ft | 4 kts | 219° |
| 2026-05-01 11:35 | 41.79664 | 12.24339 | 18 ft | 7 kts | 244° |
| 2026-05-01 11:35 | 41.79658 | 12.24318 | 18 ft | 0 kts | 248° |
| 2026-05-01 11:35 | 41.79656 | 12.24314 | 18 ft | 1 kts | 248° |
| 2026-05-01 11:36 | 41.79655 | 12.24309 | 18 ft | 1 kts | 249° |
| 2026-05-01 11:36 | 41.79653 | 12.24304 | 18 ft | 1 kts | 249° |
| 2026-05-01 11:36 | 41.79652 | 12.24299 | 18 ft | 1 kts | 249° |
| 2026-05-01 11:36 | 41.79651 | 12.24297 | 18 ft | 0 kts | 249° |